createdAt,value
2023-01-25T00:00:21.727Z,90.00
2023-01-25T00:05:45.596Z,89.30
2023-01-25T00:10:51.985Z,95.40
2023-01-25T00:16:04.762Z,94.00
2023-01-25T00:21:23.825Z,89.90
2023-01-25T00:26:30.565Z,93.30
2023-01-25T00:31:54.640Z,99.60
2023-01-25T00:37:20.928Z,49.60
2023-01-25T00:42:24.750Z,89.50
2023-01-25T00:47:28.508Z,75.00
2023-01-25T00:52:32.544Z,88.00
2023-01-25T00:57:36.502Z,87.30
2023-01-25T01:02:41.744Z,84.80
2023-01-25T01:07:50.192Z,78.00
2023-01-25T01:12:55.905Z,81.90
2023-01-25T01:17:59.814Z,93.10
2023-01-25T01:23:05.286Z,95.30
2023-01-25T01:28:09.225Z,89.70
2023-01-25T01:33:17.645Z,96.80
2023-01-25T01:38:21.963Z,38.80
2023-01-25T01:43:25.820Z,61.30
2023-01-25T01:48:37.651Z,80.70
2023-01-25T01:53:46.067Z,85.60
2023-01-25T01:58:51.375Z,89.90
2023-01-25T02:03:56.840Z,90.50
2023-01-25T02:09:01.234Z,89.10
2023-01-25T02:14:04.989Z,82.40
2023-01-25T02:19:13.049Z,74.80
2023-01-25T02:24:21.750Z,70.70
2023-01-25T02:29:26.838Z,46.20
2023-01-25T02:34:30.776Z,41.20
2023-01-25T02:39:35.426Z,51.60
2023-01-25T02:44:41.840Z,40.20
2023-01-25T02:49:46.545Z,43.10
2023-01-25T02:54:50.911Z,66.60
2023-01-25T02:59:55.208Z,66.20
2023-01-25T03:05:00.430Z,97.10
2023-01-25T03:10:05.407Z,89.60
2023-01-25T03:15:13.612Z,74.70
2023-01-25T03:20:18.432Z,97.40
2023-01-25T03:25:22.879Z,80.30
2023-01-25T03:30:36.171Z,77.70
2023-01-25T03:35:41.565Z,93.10
2023-01-25T03:40:47.172Z,93.60
2023-01-25T03:45:58.207Z,89.30
2023-01-25T03:51:02.503Z,88.80
2023-01-25T03:56:09.991Z,82.90
2023-01-25T04:01:15.550Z,87.30
2023-01-25T04:06:21.778Z,90.10
2023-01-25T04:11:27.224Z,78.10
2023-01-25T04:16:31.824Z,86.30
2023-01-25T04:21:54.549Z,78.90
2023-01-25T04:27:05.949Z,84.40
2023-01-25T04:32:15.420Z,82.90
2023-01-25T04:37:20.379Z,81.30
2023-01-25T04:42:31.617Z,77.70
2023-01-25T04:47:36.073Z,81.10
2023-01-25T04:52:41.495Z,82.40
2023-01-25T04:57:50.223Z,80.30
2023-01-25T05:02:55.008Z,84.90
2023-01-25T05:08:03.002Z,69.60
2023-01-25T05:13:08.383Z,56.50
2023-01-25T05:18:12.027Z,49.50
2023-01-25T05:23:21.769Z,38.30
2023-01-25T05:28:26.029Z,36.70
2023-01-25T05:33:48.828Z,41.30
2023-01-25T05:38:54.428Z,67.30
2023-01-25T05:43:58.471Z,42.90
2023-01-25T05:49:04.151Z,66.20
2023-01-25T05:54:12.556Z,76.50
2023-01-25T05:59:20.028Z,48.60
2023-01-25T06:04:25.580Z,48.10
2023-01-25T06:09:31.750Z,44.40
2023-01-25T06:14:37.714Z,55.90
2023-01-25T06:19:42.703Z,56.20
2023-01-25T06:24:54.117Z,48.50
2023-01-25T06:29:57.839Z,44.80
2023-01-25T06:35:01.602Z,44.20
2023-01-25T06:40:05.933Z,42.80
2023-01-25T06:45:10.993Z,37.00
2023-01-25T06:50:17.888Z,29.10
2023-01-25T06:55:22.136Z,36.10
2023-01-25T07:00:26.157Z,39.10
2023-01-25T07:05:30.666Z,43.40
2023-01-25T07:10:35.913Z,39.30
2023-01-25T07:15:40.219Z,40.20
2023-01-25T07:20:44.741Z,43.10
2023-01-25T07:25:53.817Z,37.20
2023-01-25T07:30:57.760Z,43.30
2023-01-25T07:36:06.329Z,37.80
2023-01-25T07:41:10.032Z,41.90
2023-01-25T07:46:18.972Z,37.50
2023-01-25T07:51:24.072Z,35.50
2023-01-25T07:56:37.971Z,36.00
2023-01-25T08:01:42.603Z,37.70
2023-01-25T08:06:46.767Z,32.70
2023-01-25T08:11:51.035Z,30.70
2023-01-25T08:16:55.566Z,33.00
2023-01-25T08:22:00.384Z,39.60
2023-01-25T08:27:06.679Z,40.20
2023-01-25T08:32:10.438Z,37.50
2023-01-25T08:37:14.196Z,37.40
2023-01-25T08:42:18.956Z,30.60
2023-01-25T08:47:23.848Z,34.00
2023-01-25T08:52:27.840Z,35.50
2023-01-25T08:57:32.131Z,34.50
2023-01-25T09:02:36.067Z,32.30
2023-01-25T09:07:41.295Z,35.70
2023-01-25T09:12:45.250Z,37.90
2023-01-25T09:17:53.635Z,35.60
2023-01-25T09:23:00.410Z,32.10
2023-01-25T09:28:11.697Z,30.50
2023-01-25T09:33:16.989Z,30.00
2023-01-25T09:38:24.433Z,29.70
2023-01-25T09:43:37.086Z,29.70
2023-01-25T09:49:08.312Z,31.70
2023-01-25T09:54:16.807Z,32.90
2023-01-25T09:59:27.559Z,34.40
2023-01-25T10:04:43.355Z,29.90
2023-01-25T10:09:52.589Z,28.90
2023-01-25T10:14:56.691Z,26.60
2023-01-25T10:20:32.828Z,25.00
2023-01-25T10:26:02.687Z,31.00
2023-01-25T10:31:18.462Z,25.90
2023-01-25T10:36:29.363Z,28.70
2023-01-25T10:41:42.785Z,27.00
2023-01-25T10:47:08.928Z,26.50
2023-01-25T10:52:30.880Z,29.20
2023-01-25T10:57:35.791Z,27.70
2023-01-25T11:02:48.666Z,23.30
2023-01-25T11:07:52.817Z,26.70
2023-01-25T11:13:15.533Z,25.10
2023-01-25T11:18:21.304Z,27.70
2023-01-25T11:23:27.197Z,24.80
2023-01-25T11:28:31.086Z,22.20
2023-01-25T11:33:35.386Z,27.10
2023-01-25T11:38:45.046Z,28.30
2023-01-25T11:44:00.624Z,23.90
2023-01-25T11:49:30.386Z,25.50
2023-01-25T11:54:53.263Z,34.00
2023-01-25T12:00:06.368Z,27.90
2023-01-25T12:05:26.167Z,22.10
2023-01-25T12:10:54.327Z,26.70
2023-01-25T12:16:31.956Z,21.60
2023-01-25T12:21:52.419Z,23.90
2023-01-25T12:27:08.237Z,19.10
2023-01-25T12:32:26.236Z,22.20
2023-01-25T12:37:35.540Z,23.80
2023-01-25T12:42:44.884Z,23.40
2023-01-25T12:48:00.292Z,24.60
2023-01-25T12:53:14.530Z,23.20
2023-01-25T12:58:38.135Z,26.80
2023-01-25T13:04:12.681Z,19.80
2023-01-25T13:09:39.676Z,24.50
2023-01-25T13:14:43.471Z,22.40
2023-01-25T13:19:48.643Z,59.60
2023-01-25T13:25:24.804Z,73.50
2023-01-25T13:30:32.469Z,27.00
2023-01-25T13:35:45.327Z,37.40
2023-01-25T13:41:04.112Z,30.80
2023-01-25T13:46:10.295Z,27.20
2023-01-25T13:51:15.318Z,28.30
2023-01-25T13:56:31.614Z,27.80
2023-01-25T14:01:37.123Z,21.70
2023-01-25T14:06:41.715Z,22.80
2023-01-25T14:12:07.369Z,24.10
2023-01-25T14:17:21.192Z,23.60
2023-01-25T14:22:28.864Z,22.70
2023-01-25T14:27:34.686Z,34.30
2023-01-25T14:32:38.481Z,25.40
2023-01-25T14:37:45.334Z,22.70
2023-01-25T14:42:50.411Z,22.20
2023-01-25T14:47:59.425Z,23.70
2023-01-25T14:53:07.939Z,25.20
2023-01-25T14:58:25.822Z,29.80
2023-01-25T15:03:32.239Z,24.30
2023-01-25T15:08:41.107Z,24.20
2023-01-25T15:13:45.497Z,23.70
2023-01-25T15:19:25.608Z,21.80
2023-01-25T15:24:30.835Z,23.50
2023-01-25T15:29:34.807Z,23.00
2023-01-25T15:34:38.809Z,29.60
2023-01-25T15:39:43.103Z,30.90
2023-01-25T15:44:48.279Z,29.70
2023-01-25T15:49:59.649Z,31.20
2023-01-25T15:55:04.700Z,26.30
2023-01-25T16:00:19.051Z,26.80
2023-01-25T16:05:28.236Z,30.90
2023-01-25T16:10:33.676Z,31.20
2023-01-25T16:15:42.487Z,30.70
2023-01-25T16:20:47.687Z,32.20
2023-01-25T16:25:52.970Z,30.70
2023-01-25T16:30:58.397Z,33.10
2023-01-25T16:36:26.292Z,32.80
2023-01-25T16:41:30.965Z,29.90
2023-01-25T16:46:36.413Z,30.00
2023-01-25T16:51:49.952Z,29.90
2023-01-25T16:56:59.941Z,35.70
2023-01-25T17:24:08.565Z,36.50
2023-01-25T17:29:15.559Z,44.10
2023-01-25T17:34:22.644Z,41.30
2023-01-25T17:39:28.061Z,42.70
2023-01-25T17:44:36.352Z,46.20
2023-01-25T17:49:43.160Z,49.50
2023-01-25T17:54:50.951Z,50.70
2023-01-25T18:00:00.297Z,39.60
2023-01-25T18:05:09.893Z,40.60
2023-01-25T18:10:22.147Z,36.30
2023-01-25T18:15:33.024Z,36.70
2023-01-25T18:20:41.154Z,36.20
2023-01-25T18:25:50.031Z,36.60
2023-01-25T18:31:04.648Z,31.90
2023-01-25T18:36:15.203Z,35.20
2023-01-25T18:41:23.075Z,35.10
2023-01-25T18:46:28.897Z,36.50
2023-01-25T18:51:58.798Z,37.60
2023-01-25T18:57:04.354Z,34.60
2023-01-25T19:02:21.939Z,31.90
2023-01-25T19:07:31.354Z,39.80
2023-01-25T19:12:38.287Z,33.00
2023-01-25T19:17:43.553Z,34.70
2023-01-25T19:22:55.353Z,32.50
2023-01-25T19:28:04.349Z,32.10
2023-01-25T19:33:12.484Z,34.70
2023-01-25T19:38:18.570Z,32.70
2023-01-25T19:43:27.443Z,34.40
2023-01-25T19:48:39.921Z,31.20
2023-01-25T19:54:05.977Z,33.20
2023-01-25T19:59:20.543Z,31.60
2023-01-25T20:04:27.440Z,27.80
2023-01-25T20:09:39.707Z,40.80
2023-01-25T20:14:49.690Z,59.80
2023-01-25T20:20:00.116Z,56.50
2023-01-25T20:25:09.857Z,49.60
2023-01-25T20:35:27.296Z,48.40
2023-01-25T20:40:33.892Z,52.00
2023-01-25T20:45:43.139Z,44.20
2023-01-25T20:50:49.013Z,47.90
2023-01-25T20:55:58.704Z,47.90
2023-01-25T21:01:14.159Z,42.10
2023-01-25T21:06:23.058Z,40.60
2023-01-25T21:11:33.205Z,47.90
2023-01-25T21:16:54.575Z,42.30
2023-01-25T21:22:01.262Z,40.80
2023-01-25T21:27:09.021Z,35.60
2023-01-25T21:32:14.441Z,37.40
2023-01-25T21:37:22.999Z,45.40
2023-01-25T21:42:32.553Z,43.90
2023-01-25T21:47:38.459Z,48.70
2023-01-25T21:52:42.446Z,45.40
2023-01-25T21:57:47.568Z,47.10
2023-01-25T22:02:52.964Z,43.80
2023-01-25T22:07:59.740Z,45.80
2023-01-25T22:13:04.758Z,43.80
2023-01-25T22:18:10.013Z,43.40
2023-01-25T22:23:15.058Z,45.30
2023-01-25T22:28:20.457Z,46.90
2023-01-25T22:33:28.940Z,50.90
2023-01-25T22:38:34.765Z,54.80
2023-01-25T22:43:41.189Z,49.20
2023-01-25T22:48:46.437Z,49.80
2023-01-25T22:53:51.458Z,56.50
2023-01-25T22:58:55.574Z,56.50
2023-01-25T23:04:00.135Z,53.90
2023-01-25T23:09:06.764Z,54.50
2023-01-25T23:14:31.045Z,58.90
2023-01-25T23:19:34.971Z,60.20
2023-01-25T23:24:39.495Z,58.30
2023-01-25T23:29:43.522Z,56.90
2023-01-25T23:34:53.482Z,59.60
2023-01-25T23:39:58.203Z,66.40
2023-01-25T23:45:02.525Z,63.90
2023-01-25T23:50:10.340Z,61.40
2023-01-25T23:55:14.565Z,53.40
